Latest Weather Observations for Taree Airport

IDN60801

Issued at 11:32 am EST Tuesday 22 August 2017 (issued every 30 minutes, with the page automatically refreshed every 10 minutes)

About weather observations | Map of weather stations | Latest weather observations for NSW | Other Formats
Station Details ID: 060141 Name: TAREE AIRPORT AWS Lat: -31.89 Lon: 152.51 Height: 8.0 m
Data from the previous 72 hours. | See also: Recent months at Taree Airport
Date/Time
EST
Temp
°C
App
Temp
°C
Dew
Point
°C
Rel
Hum
%
Delta-T
°C
Wind Press
QNH
hPa
Press
MSL
hPa
Rain since
9am
mm
Dir  Spd
km/h
Gust
km/h
Spd
kts
Gust
kts
22/11:30am 19.6 16.3 6.4 42 6.6 SE 13 19 7 10 1018.4 1018.4 0.2
22/11:00am 18.6 16.0 7.7 49 5.5 SSW 11 19 6 10 1018.7 1018.7 0.0
22/10:30am 17.8 15.4 7.2 50 5.3 SW 9 15 5 8 1018.8 1018.8 0.0
22/10:00am 17.0 14.2 5.0 45 5.7 WSW 9 11 5 6 1018.7 1018.7 0.0
22/09:30am 15.2 12.1 5.7 53 4.5 W 11 15 6 8 1018.7 1018.7 0.0
22/09:00am 13.9 10.9 6.0 59 3.7 WSW 11 17 6 9 1018.8 1018.8 0.0
22/08:30am 12.0 9.1 6.5 69 2.6 WNW 11 15 6 8 1018.7 1018.7 0.0
22/08:00am 9.9 7.7 6.3 78 1.7 W 7 11 4 6 1018.8 1018.8 0.0
22/07:30am 9.7 7.5 6.4 80 1.5 WNW 7 9 4 5 1018.3 1018.3 0.0
22/07:00am 9.5 6.4 5.7 77 1.7 WNW 11 13 6 7 1018.1 1018.1 0.0
22/06:30am 8.4 7.5 6.2 86 1.0 CALM 0 0 0 0 1017.8 1017.8 0.0
22/06:00am 9.1 6.6 6.4 83 1.2 WSW 9 13 5 7 1017.4 1017.4 0.0
22/05:30am 9.0 5.4 6.6 85 1.1 WSW 15 17 8 9 1017.5 1017.5 0.0
22/05:00am 9.1 6.7 6.9 86 1.0 WSW 9 11 5 6 1017.1 1017.1 0.0
22/04:30am 9.1 6.7 6.9 86 1.0 W 9 11 5 6 1017.0 1017.0 0.0
22/04:00am 8.9 7.2 7.5 91 0.7 WNW 6 7 3 4 1016.8 1016.8 0.0
22/03:30am 8.7 6.5 7.8 94 0.4 WSW 9 9 5 5 1016.7 1016.7 0.0
22/03:00am 8.8 8.3 7.7 93 0.5 CALM 0 0 0 0 1016.8 1016.8 0.0
22/02:30am 8.5 8.0 7.7 95 0.4 CALM 0 0 0 0 1016.8 1016.8 0.0
22/02:00am 8.8 8.0 8.2 96 0.3 NE 2 6 1 3 1016.9 1016.9 0.0
22/01:30am 7.9 6.0 6.7 92 0.6 N 6 9 3 5 1017.1 1017.1 0.0
22/01:00am 9.9 8.3 8.2 89 0.8 WSW 6 7 3 4 1017.3 1017.3 0.0
22/12:30am 10.3 8.5 7.9 85 1.2 WNW 7 9 4 5 1017.4 1017.4 0.0
22/12:00am 9.7 8.9 8.1 90 0.8 NW 2 6 1 3 1017.4 1017.4 0.0
 
Date/Time
EST
Temp
°C
App
Temp
°C
Dew
Point
°C
Rel
Hum
%
Delta-T
°C
Wind Press
QNH
hPa
Press
MSL
hPa
Rain since
9am
mm
Dir  Spd
km/h
Gust
km/h
Spd
kts
Gust
kts
21/11:30pm 10.3 10.0 8.6 89 0.8 CALM 0 0 0 0 1017.6 1017.6 0.0
21/11:00pm 10.6 10.3 8.7 88 0.9 CALM 0 0 0 0 1017.8 1017.8 0.0
21/10:30pm 10.7 10.5 9.1 90 0.8 CALM 0 0 0 0 1017.8 1017.8 0.0
21/10:00pm 11.3 10.7 9.0 86 1.1 W 2 6 1 3 1017.9 1017.9 0.0
21/09:30pm 11.8 11.3 9.4 85 1.2 WNW 2 6 1 3 1017.9 1017.9 0.0
21/09:00pm 11.6 11.6 9.7 88 1.0 CALM 0 0 0 0 1017.6 1017.6 0.0
21/08:30pm 11.9 10.6 10.1 89 0.9 WSW 7 9 4 5 1017.7 1017.7 0.0
21/08:00pm 11.9 10.7 10.3 90 0.8 SW 7 9 4 5 1017.5 1017.5 0.0
21/07:30pm 12.2 11.0 10.4 89 0.9 WSW 7 9 4 5 1017.4 1017.4 0.0
21/07:00pm 12.6 11.1 8.3 75 2.1 N 6 7 3 4 1017.3 1017.3 0.0
21/06:30pm 12.4 10.7 8.5 77 1.9 N 7 9 4 5 1017.2 1017.2 0.0
21/06:00pm 12.6 11.1 9.1 79 1.8 NNE 7 9 4 5 1017.0 1017.0 0.0
21/05:30pm 12.6 11.3 9.8 83 1.4 N 7 9 4 5 1017.1 1017.1 0.0
21/05:00pm 13.5 12.3 9.6 77 2.0 N 6 7 3 4 1017.2 1017.2 0.0
21/04:30pm 14.3 13.1 9.7 74 2.4 S 6 7 3 4 1017.1 1017.1 0.0
21/04:00pm 14.9 13.2 8.4 65 3.3 NNE 7 9 4 5 1017.2 1017.2 0.0
21/03:30pm 15.8 14.0 7.8 59 4.0 N 7 11 4 6 1017.2 1017.2 0.0
21/03:00pm 16.3 14.3 8.8 61 3.8 NNW 9 9 5 5 1016.9 1016.9 0.0
21/02:30pm 16.4 16.1 8.6 60 4.0 CALM 0 0 0 0 1016.8 1016.8 0.0
21/02:00pm 16.6 14.7 7.5 55 4.5 NW 7 9 4 5 1017.0 1017.0 0.0
21/01:30pm 16.4 14.6 7.9 57 4.3 WSW 7 11 4 6 1017.4 1017.4 0.0
21/01:00pm 15.8 13.7 8.1 60 3.9 W 9 11 5 6 1017.6 1017.6 0.0
21/12:30pm 16.0 14.2 7.2 56 4.4 WSW 6 11 3 6 1017.8 1017.8 0.0
21/12:00pm 16.0 13.4 6.2 52 4.7 NE 9 11 5 6 1018.3 1018.3 0.0
21/11:30am 15.8 13.9 7.6 58 4.1 NNE 7 11 4 6 1019.0 1019.0 0.0
21/11:00am 14.0 12.7 7.8 66 3.1 NW 4 13 2 7 1019.9 1019.9 0.0
21/10:30am 14.1 12.6 9.1 72 2.5 NNW 7 13 4 7 1020.5 1020.5 0.0
21/10:00am 11.4 10.2 7.9 79 1.7 NW 4 9 2 5 1020.0 1020.0 0.0
21/09:30am 10.4 9.3 6.9 79 1.7 W 2 9 1 5 1020.5 1020.5 0.0
21/09:00am 10.0 8.5 6.7 80 1.5 WSW 4 7 2 4 1020.6 1020.6 0.0
21/08:30am 9.5 7.4 6.8 83 1.3 WSW 7 9 4 5 1020.8 1020.8 0.0
21/08:00am 8.5 6.8 6.1 85 1.1 W 4 6 2 3 1020.8 1020.8 0.0
21/07:30am 6.9 5.2 5.7 92 0.5 W 4 6 2 3 1021.1 1021.1 0.0
21/07:00am 6.7 4.6 6.0 95 0.3 NW 6 9 3 5 1020.8 1020.8 0.0
21/06:30am 6.5 3.8 5.5 93 0.4 W 9 13 5 7 1020.5 1020.5 0.0
21/06:00am 7.0 4.4 6.1 94 0.4 W 9 13 5 7 1020.4 1020.4 0.0
21/05:30am 5.8 4.7 5.2 96 0.3 CALM 0 0 0 0 1019.8 1019.8 0.0
21/05:00am 6.0 4.4 4.5 90 0.6 W 2 7 1 4 1020.0 1020.0 0.0
21/04:30am 7.0 4.4 6.3 95 0.3 W 9 15 5 8 1020.1 1020.1 0.0
21/04:00am 6.6 4.0 6.0 96 0.3 WNW 9 9 5 5 1020.4 1020.4 0.0
21/03:30am 6.9 4.9 6.2 95 0.3 WNW 6 9 3 5 1020.4 1020.4 0.0
21/03:00am 6.8 4.6 6.1 95 0.3 NW 7 9 4 5 1020.2 1020.2 0.0
21/02:30am 7.4 4.9 6.5 94 0.4 WSW 9 9 5 5 1020.3 1020.3 0.0
21/02:00am 7.0 4.7 5.9 93 0.5 NW 7 7 4 4 1020.7 1020.7 0.0
21/01:30am 8.4 5.6 6.9 90 0.7 NW 11 11 6 6 1021.0 1021.0 0.0
21/01:00am 8.8 6.5 7.3 90 0.7 WNW 9 11 5 6 1021.1 1021.1 0.0
21/12:30am 8.2 5.8 7.0 92 0.6 NW 9 11 5 6 1021.3 1021.3 0.0
21/12:00am 8.7 7.4 7.5 92 0.6 WNW 4 7 2 4 1021.5 1021.5 0.0
 
Date/Time
EST
Temp
°C
App
Temp
°C
Dew
Point
°C
Rel
Hum
%
Delta-T
°C
Wind Press
QNH
hPa
Press
MSL
hPa
Rain since
9am
mm
Dir  Spd
km/h
Gust
km/h
Spd
kts
Gust
kts
20/11:30pm 10.0 9.1 7.9 87 1.0 SW 2 7 1 4 1021.6 1021.6 0.0
20/11:00pm 10.5 8.4 8.1 85 1.2 W 9 13 5 7 1021.8 1021.8 0.0
20/10:30pm 10.3 7.3 7.9 85 1.2 WNW 13 15 7 8 1022.1 1022.1 0.0
20/10:00pm 10.5 7.6 8.1 85 1.2 WNW 13 15 7 8 1022.0 1022.0 0.0
20/09:30pm 10.7 8.3 8.5 86 1.1 W 11 17 6 9 1022.0 1022.0 0.0
20/09:00pm 11.1 9.1 8.7 85 1.2 WSW 9 15 5 8 1021.9 1021.9 0.0
20/08:30pm 10.9 8.8 8.3 84 1.3 WNW 9 11 5 6 1021.7 1021.7 0.0
20/08:00pm 11.2 9.1 8.4 83 1.4 WSW 9 11 5 6 1021.7 1021.7 0.0
20/07:30pm 11.0 8.2 8.4 84 1.3 NW 13 17 7 9 1021.6 1021.6 0.0
20/07:00pm 11.2 8.8 8.6 84 1.3 W 11 19 6 10 1021.6 1021.6 0.0
20/06:30pm 11.4 8.6 8.6 83 1.4 W 13 19 7 10 1021.5 1021.5 0.0
20/06:00pm 11.3 7.8 8.7 84 1.3 W 17 22 9 12 1021.1 1021.1 0.0
20/05:30pm 11.7 8.2 8.7 82 1.5 W 17 24 9 13 1021.1 1021.1 0.0
20/05:00pm 12.3 9.1 8.6 78 1.8 WSW 15 19 8 10 1021.2 1021.2 0.0
20/04:30pm 12.5 9.7 8.6 77 1.9 W 13 19 7 10 1021.1 1021.1 0.0
20/04:00pm 12.5 9.4 8.8 78 1.8 W 15 26 8 14 1021.1 1021.1 0.0
20/03:30pm 12.6 10.3 8.9 78 1.9 WSW 11 19 6 10 1020.9 1020.9 0.0
20/03:00pm 12.5 8.5 8.4 76 2.0 SW 19 26 10 14 1020.9 1020.9 0.0
20/02:30pm 13.0 8.3 7.9 71 2.5 S 22 33 12 18 1021.0 1021.0 0.0
20/02:00pm 14.6 8.7 5.9 56 4.1 SSW 26 35 14 19 1020.6 1020.6 0.0
20/01:30pm 14.9 10.3 5.4 53 4.5 SSW 19 30 10 16 1020.7 1020.7 0.0
20/01:00pm 13.9 8.2 5.0 55 4.1 SSW 24 33 13 18 1021.0 1021.0 0.0
20/12:30pm 14.0 8.7 5.1 55 4.2 SSW 22 30 12 16 1021.1 1021.1 0.0
20/12:00pm 14.1 8.7 4.7 53 4.3 SW 22 33 12 18 1021.6 1021.6 0.0
20/11:30am 14.0 8.6 4.6 53 4.3 SW 22 33 12 18 1022.0 1022.0 0.0
20/11:00am 13.7 7.6 4.8 55 4.1 SW 26 35 14 19 1022.3 1022.3 0.0
20/10:30am 13.6 8.2 4.5 54 4.2 SW 22 32 12 17 1022.5 1022.5 0.0
20/10:00am 13.0 7.0 3.4 52 4.3 SW 24 39 13 21 1022.6 1022.6 0.0
20/09:30am 12.8 7.5 2.9 51 4.4 WSW 20 32 11 17 1022.5 1022.5 0.0
20/09:00am 11.9 6.1 2.1 51 4.2 SW 22 33 12 18 1022.5 1022.5 1.4
20/08:30am 11.6 5.9 2.6 54 3.9 WSW 22 30 12 16 1022.2 1022.2 1.4
20/08:00am 10.7 5.4 2.0 55 3.7 WSW 19 28 10 15 1022.1 1022.1 1.4
20/07:30am 9.9 4.9 1.5 56 3.5 WSW 17 28 9 15 1021.9 1021.9 1.4
20/07:00am 9.5 4.1 1.2 56 3.4 WSW 19 28 10 15 1021.6 1021.6 1.4
20/06:30am 9.3 4.3 1.5 58 3.2 WSW 17 26 9 14 1021.2 1021.2 1.4
20/06:00am 9.3 4.0 1.9 60 3.1 WSW 19 26 10 14 1021.0 1021.0 1.4
20/05:30am 9.8 4.4 2.2 59 3.2 WSW 20 30 11 16 1020.7 1020.7 1.4
20/05:00am 9.7 4.5 2.6 61 3.0 WSW 19 28 10 15 1020.2 1020.2 1.4
20/04:30am 9.5 4.7 2.6 62 2.9 WSW 17 24 9 13 1020.1 1020.1 1.4
20/04:00am 9.1 5.2 3.5 68 2.4 WSW 13 17 7 9 1019.9 1019.9 1.4
20/03:30am 9.3 6.0 4.3 71 2.2 WSW 11 17 6 9 1019.8 1019.8 1.4
20/03:00am 8.8 6.0 5.0 77 1.7 WSW 9 13 5 7 1019.9 1019.9 1.4
20/02:30am 9.0 5.8 5.2 77 1.7 SW 11 17 6 9 1020.1 1020.1 1.2
20/02:00am 9.0 4.9 4.6 74 1.9 WSW 15 20 8 11 1019.9 1019.9 1.2
20/01:30am 9.5 4.6 4.9 73 2.1 WSW 20 33 11 18 1020.1 1020.1 1.2
20/01:00am 9.5 4.5 4.7 72 2.1 WSW 20 33 11 18 1020.1 1020.1 1.2
20/12:30am 9.5 5.0 4.1 69 2.4 WSW 17 26 9 14 1020.0 1020.0 1.0
20/12:00am 9.5 4.4 4.3 70 2.3 WSW 20 32 11 17 1020.2 1020.2 1.0
 
Date/Time
EST
Temp
°C
App
Temp
°C
Dew
Point
°C
Rel
Hum
%
Delta-T
°C
Wind Press
QNH
hPa
Press
MSL
hPa
Rain since
9am
mm
Dir  Spd
km/h
Gust
km/h
Spd
kts
Gust
kts
19/11:30pm 9.2 3.5 4.8 74 2.0 WSW 24 33 13 18 1020.5 1020.5 1.0
19/11:08pm 9.5 3.1 5.1 74 2.0 SW 28 46 15 25 1020.1 1020.1 1.0
19/11:00pm 9.5 3.4 4.7 72 2.1 SW 26 46 14 25 1020.0 1020.0 1.0
19/10:55pm 9.6 3.1 4.8 72 2.1 SW 28 46 15 25 1020.1 1020.1 1.0
19/10:30pm 9.6 3.2 5.2 74 2.0 SW 28 39 15 21 1020.4 1020.4 1.0
19/10:06pm 9.2 1.2 5.9 80 1.5 SSW 37 56 20 30 1020.6 1020.6 1.0
19/10:02pm 9.3 3.0 5.9 79 1.6 S 28 56 15 30 1020.7 1020.7 0.6
19/10:00pm 9.5 4.0 5.7 77 1.7 S 24 56 13 30 1020.9 1020.9 0.6
19/09:30pm 11.0 7.6 5.7 70 2.4 SW 13 19 7 10 1020.2 1020.2 0.0
19/09:00pm 11.0 6.6 4.7 65 2.8 SW 17 24 9 13 1020.2 1020.2 0.0
19/08:30pm 10.6 6.2 4.5 66 2.7 SW 17 26 9 14 1019.6 1019.6 0.0
19/08:00pm 10.9 3.9 3.9 62 3.1 SW 30 39 16 21 1019.4 1019.4 0.0
19/07:41pm 11.0 4.5 4.5 64 2.9 SSW 28 46 15 25 1019.8 1019.8 0.0
19/07:30pm 11.3 5.6 4.7 64 3.0 SSW 24 33 13 18 1019.7 1019.7 0.0
19/07:10pm 11.4 4.1 4.6 63 3.1 SSW 32 50 17 27 1019.1 1019.1 0.0
19/07:00pm 11.6 4.1 4.6 62 3.2 SSW 33 50 18 27 1019.0 1019.0 0.0
19/06:59pm 11.7 4.2 4.7 62 3.2 S 33 50 18 27 1019.0 1019.0 0.0
19/06:30pm 12.1 7.5 5.7 65 3.0 S 19 28 10 15 1018.7 1018.7 0.0
19/06:00pm 12.2 8.0 5.6 64 3.1 S 17 20 9 11 1018.0 1018.0 0.0
19/05:30pm 12.0 7.2 5.6 65 3.0 S 20 28 11 15 1017.5 1017.5 0.0
19/05:00pm 11.9 5.0 4.6 61 3.3 S 30 39 16 21 1017.0 1017.0 0.0
19/04:37pm 13.1 5.4 3.2 51 4.4 S 33 48 18 26 1016.4 1016.4 0.0
19/04:30pm 14.6 6.9 -0.3 36 6.2 SSW 30 41 16 22 1016.2 1016.2 0.0
19/04:00pm 15.2 6.9 -1.4 32 6.8 SSW 32 41 17 22 1015.8 1015.8 0.0
19/03:30pm 16.1 8.7 -1.0 31 7.1 SSW 28 44 15 24 1015.3 1015.3 0.0
19/03:00pm 15.8 7.2 -2.2 29 7.3 SW 33 48 18 26 1015.1 1015.1 0.0
19/02:37pm 16.4 7.9 -1.7 29 7.5 SW 33 52 18 28 1014.8 1014.8 0.0
19/02:30pm 16.4 7.2 -1.7 29 7.5 SSW 37 52 20 28 1014.7 1014.7 0.0
19/02:05pm 16.2 7.9 -1.8 29 7.4 SW 32 50 17 27 1014.7 1014.7 0.0
19/02:00pm 16.4 8.1 -1.7 29 7.5 SW 32 44 17 24 1014.7 1014.7 0.0
19/01:34pm 15.8 6.9 -2.2 29 7.3 SW 35 54 19 29 1014.8 1014.8 0.0
19/01:30pm 15.4 6.9 -2.1 30 7.1 SW 33 46 18 25 1014.7 1014.7 0.0
19/01:00pm 14.8 6.5 -1.7 32 6.7 SW 32 46 17 25 1014.6 1014.6 0.0
19/12:47pm 15.4 6.6 -1.2 32 6.9 SW 35 54 19 29 1014.7 1014.7 0.0
19/12:30pm 15.6 7.2 -1.0 32 6.9 SW 33 46 18 25 1014.6 1014.6 0.0
19/12:10pm 14.9 6.0 -1.6 32 6.7 SW 35 54 19 29 1014.7 1014.7 0.0
19/12:00pm 15.0 6.5 -1.5 32 6.7 SW 33 48 18 26 1015.0 1015.0 0.0
19/11:37am 14.9 6.7 -1.2 33 6.6 SW 32 52 17 28 1015.0 1015.0 0.0

Other Formats:

Comma delimited format used in spreadsheet applications
http://www.bom.gov.au/fwo/IDN60801/IDN60801.95784.axf

JavaScript Object Notation format (JSON) in row-major order
http://www.bom.gov.au/fwo/IDN60801/IDN60801.95784.json